createdAt,value
2022-12-05T00:01:23.534Z,101064.84
2022-12-05T00:03:54.002Z,101068.97
2022-12-05T00:06:22.957Z,101066.94
2022-12-05T00:08:51.785Z,101073.19
2022-12-05T00:11:27.808Z,101062.31
2022-12-05T00:13:56.963Z,101062.41
2022-12-05T00:16:26.594Z,101069.44
2022-12-05T00:18:54.174Z,101071.97
2022-12-05T00:21:26.547Z,101077.41
2022-12-05T00:23:55.636Z,101073.34
2022-12-05T00:26:23.197Z,101083.06
2022-12-05T00:28:52.608Z,101070.91
2022-12-05T00:31:21.817Z,101069.66
2022-12-05T00:33:49.699Z,101075.09
2022-12-05T00:36:18.695Z,101071.44
2022-12-05T00:38:46.214Z,101089.44
2022-12-05T00:41:19.984Z,101087.06
2022-12-05T00:43:47.992Z,101091.19
2022-12-05T00:46:18.472Z,101084.63
2022-12-05T00:48:46.253Z,101079.56
2022-12-05T00:51:23.168Z,101081.97
2022-12-05T00:53:50.781Z,101082.47
2022-12-05T00:56:20.330Z,101079.41
2022-12-05T00:58:48.455Z,101078.94
2022-12-05T01:01:21.805Z,101091.38
2022-12-05T01:03:49.448Z,101092.53
2022-12-05T01:06:17.114Z,101095.78
2022-12-05T01:08:44.526Z,101092.81
2022-12-05T01:11:15.296Z,101092.97
2022-12-05T01:13:43.133Z,101097.59
2022-12-05T01:16:21.505Z,101093.69
2022-12-05T01:18:49.383Z,101108.91
2022-12-05T01:21:17.374Z,101111.25
2022-12-05T01:23:44.721Z,101113.91
2022-12-05T01:26:14.620Z,101125.72
2022-12-05T01:28:42.034Z,101117.97
2022-12-05T01:31:31.432Z,101119.44
2022-12-05T01:34:00.487Z,101114.69
2022-12-05T01:36:28.461Z,101122.97
2022-12-05T01:38:56.265Z,101127.03
2022-12-05T01:41:26.229Z,101129.00
2022-12-05T01:44:07.166Z,101138.06
2022-12-05T01:46:39.910Z,101140.44
2022-12-05T01:49:11.345Z,101149.53
2022-12-05T01:51:41.298Z,101148.66
2022-12-05T01:54:08.515Z,101156.34
2022-12-05T01:56:36.143Z,101163.97
2022-12-05T01:59:05.519Z,101165.72
2022-12-05T02:01:32.868Z,101176.91
2022-12-05T02:04:00.431Z,101172.25
2022-12-05T02:06:28.593Z,101170.66
2022-12-05T02:08:56.015Z,101174.19
2022-12-05T02:11:25.417Z,101169.59
2022-12-05T02:14:10.456Z,101165.59
2022-12-05T02:16:46.861Z,101165.00
2022-12-05T02:19:27.530Z,101166.59
2022-12-05T02:22:01.223Z,101151.38
2022-12-05T02:24:28.628Z,101161.84
2022-12-05T02:27:38.743Z,101160.34
2022-12-05T02:30:11.540Z,101163.97
2022-12-05T02:32:50.516Z,101159.31
2022-12-05T02:35:36.296Z,101172.66
2022-12-05T02:38:03.549Z,101163.28
2022-12-05T02:40:35.459Z,101165.19
2022-12-05T02:43:24.215Z,101165.63
2022-12-05T02:45:54.167Z,101173.94
2022-12-05T02:48:21.510Z,101161.34
2022-12-05T02:50:49.317Z,101158.69
2022-12-05T02:53:18.036Z,101163.66
2022-12-05T02:55:45.767Z,101168.75
2022-12-05T02:58:21.968Z,101164.53
2022-12-05T03:00:50.507Z,101166.22
2022-12-05T03:03:19.576Z,101166.94
2022-12-05T03:05:57.436Z,101158.97
2022-12-05T03:08:30.066Z,101161.38
2022-12-05T03:10:58.853Z,101170.78
2022-12-05T03:13:29.445Z,101173.16
2022-12-05T03:16:00.652Z,101169.03
2022-12-05T03:18:34.226Z,101172.91
2022-12-05T03:21:08.925Z,101173.53
2022-12-05T03:23:42.267Z,101172.56
2022-12-05T03:26:20.637Z,101182.13
2022-12-05T03:29:11.882Z,101183.03
2022-12-05T03:31:52.626Z,101187.19
2022-12-05T03:34:35.052Z,101193.38
2022-12-05T03:37:07.125Z,101187.22
2022-12-05T03:39:35.847Z,101184.50
2022-12-05T03:42:14.005Z,101187.25
2022-12-05T03:44:47.156Z,101186.22
2022-12-05T03:47:33.209Z,101189.50
2022-12-05T03:50:04.511Z,101197.91
2022-12-05T03:53:03.696Z,101196.16
2022-12-05T03:55:29.937Z,101202.84
2022-12-05T03:58:08.902Z,101203.09
2022-12-05T04:00:41.354Z,101209.13
2022-12-05T04:03:24.542Z,101207.63
2022-12-05T04:05:56.915Z,101214.25
2022-12-05T04:08:31.506Z,101218.41
2022-12-05T04:11:03.687Z,101216.38
2022-12-05T04:13:33.966Z,101220.25
2022-12-05T04:16:23.559Z,101219.19
2022-12-05T04:18:56.742Z,101215.75
2022-12-05T04:21:39.121Z,101214.03
2022-12-05T04:24:29.095Z,101219.56
2022-12-05T04:27:16.557Z,101227.38
2022-12-05T04:29:53.247Z,101222.13
2022-12-05T04:32:25.012Z,101220.50
2022-12-05T04:34:55.926Z,101222.22
2022-12-05T04:37:30.969Z,101222.22
2022-12-05T04:40:04.551Z,101228.06
2022-12-05T04:42:33.770Z,101227.16
2022-12-05T04:45:08.345Z,101224.44
2022-12-05T04:47:46.208Z,101223.59
2022-12-05T04:50:14.546Z,101225.38
2022-12-05T04:52:43.531Z,101236.91
2022-12-05T04:55:16.223Z,101240.16
2022-12-05T04:58:19.945Z,101239.97
2022-12-05T05:00:52.995Z,101244.00
2022-12-05T05:03:31.192Z,101245.25
2022-12-05T05:05:58.793Z,101244.19
2022-12-05T05:08:29.029Z,101253.88
2022-12-05T05:11:11.766Z,101251.00
2022-12-05T05:13:39.239Z,101245.25
2022-12-05T05:16:07.137Z,101245.13
2022-12-05T05:18:34.661Z,101250.66
2022-12-05T05:21:01.957Z,101253.16
2022-12-05T05:23:29.183Z,101238.00
2022-12-05T05:25:56.631Z,101251.63
2022-12-05T05:28:23.892Z,101251.94
2022-12-05T05:30:51.264Z,101250.34
2022-12-05T05:33:18.695Z,101255.19
2022-12-05T05:35:46.010Z,101249.78
2022-12-05T05:38:13.239Z,101260.34
2022-12-05T05:40:40.633Z,101258.22
2022-12-05T05:43:08.348Z,101265.88
2022-12-05T05:45:36.938Z,101268.59
2022-12-05T05:48:04.529Z,101273.38
2022-12-05T05:50:31.752Z,101277.16
2022-12-05T05:52:59.442Z,101278.78
2022-12-05T05:55:26.767Z,101278.66
2022-12-05T05:57:54.154Z,101277.72
2022-12-05T06:00:21.721Z,101283.50
2022-12-05T06:02:49.118Z,101283.25
2022-12-05T06:05:16.479Z,101281.22
2022-12-05T06:07:43.838Z,101295.19
2022-12-05T06:10:11.317Z,101292.56
2022-12-05T06:12:38.607Z,101294.13
2022-12-05T06:15:06.601Z,101300.13
2022-12-05T06:17:33.856Z,101300.72
2022-12-05T06:20:01.220Z,101301.22
2022-12-05T06:22:29.816Z,101301.13
2022-12-05T06:24:57.220Z,101308.19
2022-12-05T06:27:24.577Z,101305.31
2022-12-05T06:29:52.957Z,101304.16
2022-12-05T06:32:20.320Z,101309.22
2022-12-05T06:34:47.610Z,101311.09
2022-12-05T06:37:15.119Z,101313.91
2022-12-05T06:39:42.478Z,101321.81
2022-12-05T06:42:09.814Z,101316.63
2022-12-05T06:44:37.151Z,101324.41
2022-12-05T06:47:04.461Z,101327.16
2022-12-05T06:49:37.616Z,101330.28
2022-12-05T06:52:05.375Z,101342.75
2022-12-05T06:54:32.861Z,101334.91
2022-12-05T06:57:00.085Z,101338.22
2022-12-05T06:59:27.352Z,101335.00
2022-12-05T07:01:54.721Z,101339.94
2022-12-05T07:04:26.324Z,101346.88
2022-12-05T07:06:55.061Z,101344.44
2022-12-05T07:09:45.136Z,101348.00
2022-12-05T07:12:14.068Z,101350.44
2022-12-05T07:14:49.860Z,101360.31
2022-12-05T07:17:21.453Z,101364.88
2022-12-05T07:19:52.198Z,101370.53
2022-12-05T07:22:21.451Z,101377.72
2022-12-05T07:24:49.040Z,101363.69
2022-12-05T07:27:18.474Z,101369.31
2022-12-05T07:29:48.081Z,101364.19
2022-12-05T07:32:15.394Z,101374.78
2022-12-05T07:34:42.720Z,101374.94
2022-12-05T07:37:10.028Z,101372.66
2022-12-05T07:39:37.339Z,101385.47
2022-12-05T07:42:04.611Z,101378.91
2022-12-05T07:44:32.035Z,101383.56
2022-12-05T07:46:59.455Z,101386.88
2022-12-05T07:49:26.825Z,101390.44
2022-12-05T07:51:54.157Z,101393.03
2022-12-05T07:54:21.410Z,101387.16
2022-12-05T07:56:48.624Z,101401.81
2022-12-05T07:59:15.955Z,101389.75
2022-12-05T08:01:43.323Z,101398.56
2022-12-05T08:04:15.061Z,101400.69
2022-12-05T08:06:42.937Z,101407.38
2022-12-05T08:09:10.688Z,101414.69
2022-12-05T08:11:39.466Z,101412.41
2022-12-05T08:14:08.295Z,101417.69
2022-12-05T08:16:35.679Z,101418.34
2022-12-05T08:19:05.833Z,101427.88
2022-12-05T08:21:33.643Z,101425.13
2022-12-05T08:24:00.953Z,101428.50
2022-12-05T08:26:30.775Z,101425.22
2022-12-05T08:28:59.224Z,101430.13
2022-12-05T08:31:28.261Z,101419.09
2022-12-05T08:33:59.305Z,101432.03
2022-12-05T08:36:28.765Z,101425.53
2022-12-05T08:38:57.699Z,101431.97
2022-12-05T08:41:28.675Z,101431.31
2022-12-05T08:43:58.419Z,101432.78
2022-12-05T08:46:26.025Z,101438.09
2022-12-05T08:48:53.415Z,101436.13
2022-12-05T08:51:20.772Z,101432.53
2022-12-05T08:53:48.028Z,101430.41
2022-12-05T08:56:15.345Z,101428.19
2022-12-05T08:58:42.641Z,101435.28
2022-12-05T09:01:15.089Z,101440.06
2022-12-05T09:03:47.606Z,101437.66
2022-12-05T09:06:19.211Z,101443.59
2022-12-05T09:08:47.338Z,101450.88
2022-12-05T09:11:20.180Z,101455.50
2022-12-05T09:13:48.126Z,101458.41
2022-12-05T09:16:26.642Z,101451.38
2022-12-05T09:18:53.945Z,101456.31
2022-12-05T09:21:23.705Z,101461.00
2022-12-05T09:23:51.506Z,101469.50
2022-12-05T09:26:22.275Z,101463.06
2022-12-05T09:28:49.593Z,101464.88
2022-12-05T09:31:19.765Z,101467.44
2022-12-05T09:33:47.581Z,101467.28
2022-12-05T09:36:21.502Z,101460.13
2022-12-05T09:38:49.546Z,101468.03
2022-12-05T09:41:57.051Z,101475.72
2022-12-05T09:44:43.446Z,101480.88
2022-12-05T09:47:15.719Z,101486.06
2022-12-05T09:49:50.031Z,101481.34
2022-12-05T09:52:27.604Z,101482.75
2022-12-05T09:54:55.749Z,101476.94
2022-12-05T09:57:36.069Z,101494.78
2022-12-05T10:00:07.343Z,101488.25
2022-12-05T10:02:46.137Z,101487.34
2022-12-05T10:05:24.974Z,101488.25
2022-12-05T10:08:16.951Z,101498.78
2022-12-05T10:11:29.535Z,101491.94
2022-12-05T10:14:27.070Z,101493.22
2022-12-05T10:17:21.346Z,101492.34
2022-12-05T10:19:49.923Z,101497.97
2022-12-05T10:22:22.944Z,101493.47
2022-12-05T10:24:54.283Z,101502.84
2022-12-05T10:27:39.511Z,101497.63
2022-12-05T10:30:17.975Z,101503.25
2022-12-05T10:32:58.466Z,101503.25
2022-12-05T10:35:37.154Z,101497.63
2022-12-05T10:38:07.336Z,101500.22
2022-12-05T10:40:39.679Z,101499.78
2022-12-05T10:43:08.854Z,101492.09
2022-12-05T10:45:43.677Z,101500.03
2022-12-05T10:48:13.077Z,101496.50
2022-12-05T10:50:42.476Z,101507.41
2022-12-05T10:53:16.501Z,101492.03
2022-12-05T10:56:28.350Z,101499.84
2022-12-05T10:58:39.859Z,101498.25
2022-12-05T11:01:09.437Z,101499.81
2022-12-05T11:03:41.342Z,101502.63
2022-12-05T11:06:24.008Z,101498.59
2022-12-05T11:09:05.641Z,101498.50
2022-12-05T11:11:33.890Z,101504.91
2022-12-05T11:14:02.887Z,101501.88
2022-12-05T11:16:40.033Z,101503.41
2022-12-05T11:19:22.822Z,101502.06
2022-12-05T11:21:50.496Z,101505.19
2022-12-05T11:24:47.569Z,101497.94
2022-12-05T11:27:18.202Z,101503.97
2022-12-05T11:29:55.960Z,101498.19
2022-12-05T11:32:25.958Z,101500.63
2022-12-05T11:35:04.530Z,101504.22
2022-12-05T11:37:46.015Z,101495.84
2022-12-05T11:40:30.879Z,101500.47
2022-12-05T11:43:15.197Z,101501.88
2022-12-05T11:45:51.554Z,101504.22
2022-12-05T11:48:22.305Z,101499.56
2022-12-05T11:50:59.064Z,101499.25
2022-12-05T11:53:51.423Z,101491.75
2022-12-05T11:57:12.630Z,101498.91
2022-12-05T11:59:39.909Z,101482.34
2022-12-05T12:02:35.353Z,101488.78
2022-12-05T12:05:14.585Z,101481.81
2022-12-05T12:07:57.120Z,101494.78
2022-12-05T12:10:48.676Z,101486.59
2022-12-05T12:13:57.626Z,101477.88
2022-12-05T12:16:37.028Z,101470.34
2022-12-05T12:19:10.878Z,101481.56
2022-12-05T12:21:54.556Z,101478.47
2022-12-05T12:24:39.815Z,101475.50
2022-12-05T12:27:32.079Z,101483.78
2022-12-05T12:30:12.341Z,101481.13
2022-12-05T12:32:58.029Z,101478.06
2022-12-05T12:35:37.063Z,101484.09
2022-12-05T12:38:17.640Z,101486.84
2022-12-05T12:40:50.872Z,101481.31
2022-12-05T12:43:52.715Z,101483.47
2022-12-05T12:46:20.243Z,101481.09
2022-12-05T12:49:03.950Z,101475.03
2022-12-05T12:51:33.495Z,101480.06
2022-12-05T12:54:25.280Z,101481.69
2022-12-05T12:57:39.831Z,101489.75
2022-12-05T13:00:29.061Z,101479.47
2022-12-05T13:03:02.050Z,101483.84
2022-12-05T13:05:41.739Z,101488.06
2022-12-05T13:08:35.408Z,101492.38
2022-12-05T13:11:06.035Z,101483.78
2022-12-05T13:13:37.219Z,101489.56
2022-12-05T13:16:08.002Z,101482.19
2022-12-05T13:18:35.750Z,101475.66
2022-12-05T13:21:07.593Z,101476.22
2022-12-05T13:23:43.760Z,101477.41
2022-12-05T13:26:12.202Z,101471.56
2022-12-05T13:28:47.215Z,101472.00
2022-12-05T13:31:39.628Z,101471.72
2022-12-05T13:34:27.462Z,101469.53
2022-12-05T13:37:15.661Z,101472.34
2022-12-05T13:40:09.737Z,101461.31
2022-12-05T13:42:37.954Z,101466.31
2022-12-05T13:45:05.177Z,101466.00
2022-12-05T13:47:35.103Z,101469.53
2022-12-05T13:50:23.642Z,101463.53
2022-12-05T13:52:56.562Z,101464.06
2022-12-05T13:55:36.776Z,101467.84
2022-12-05T13:58:16.526Z,101473.41
2022-12-05T14:00:45.363Z,101470.63
2022-12-05T14:03:35.573Z,101461.19
2022-12-05T14:06:03.037Z,101460.38
2022-12-05T14:08:30.227Z,101462.97
2022-12-05T14:10:57.429Z,101471.25
2022-12-05T14:13:25.660Z,101458.09
2022-12-05T14:15:54.688Z,101464.19
2022-12-05T14:18:31.188Z,101465.50
2022-12-05T14:21:11.530Z,101459.66
2022-12-05T14:23:57.580Z,101458.44
2022-12-05T14:26:48.963Z,101472.78
2022-12-05T14:29:36.850Z,101470.63
2022-12-05T14:32:19.167Z,101475.66
2022-12-05T14:34:58.149Z,101476.31
2022-12-05T14:37:29.233Z,101479.19
2022-12-05T14:39:58.706Z,101481.88
2022-12-05T14:42:39.328Z,101486.03
2022-12-05T14:45:30.091Z,101481.94
2022-12-05T14:47:59.654Z,101486.09
2022-12-05T14:50:40.872Z,101486.41
2022-12-05T14:53:15.753Z,101484.13
2022-12-05T14:55:50.734Z,101491.84
2022-12-05T14:58:22.284Z,101496.44
2022-12-05T15:00:58.081Z,101494.94
2022-12-05T15:03:30.864Z,101492.72
2022-12-05T15:06:03.675Z,101492.72
2022-12-05T15:08:47.391Z,101500.66
2022-12-05T15:11:28.455Z,101498.78
2022-12-05T15:14:00.509Z,101500.88
2022-12-05T15:16:30.001Z,101508.22
2022-12-05T15:19:05.274Z,101512.41
2022-12-05T15:21:36.544Z,101508.03
2022-12-05T15:24:21.924Z,101512.00
2022-12-05T15:26:50.504Z,101511.84
2022-12-05T15:29:29.156Z,101516.97
2022-12-05T15:32:02.402Z,101510.31
2022-12-05T15:34:45.967Z,101510.69
2022-12-05T15:37:25.904Z,101505.22
2022-12-05T15:40:11.122Z,101508.34
2022-12-05T15:42:49.945Z,101508.19
2022-12-05T15:45:20.014Z,101514.59
2022-12-05T15:47:59.840Z,101516.06
2022-12-05T15:50:33.814Z,101508.41
2022-12-05T15:53:05.654Z,101501.31
2022-12-05T15:55:39.360Z,101508.88
2022-12-05T15:58:13.445Z,101510.78
2022-12-05T16:00:59.643Z,101508.84
2022-12-05T16:03:49.249Z,101514.13
2022-12-05T16:06:20.372Z,101520.41
2022-12-05T16:08:48.103Z,101518.69
2022-12-05T16:11:16.140Z,101510.41
2022-12-05T16:13:49.912Z,101520.53
2022-12-05T16:16:24.341Z,101515.41
2022-12-05T16:19:00.202Z,101521.19
2022-12-05T16:21:33.103Z,101514.75
2022-12-05T16:24:08.483Z,101521.41
2022-12-05T16:26:39.709Z,101532.88
2022-12-05T16:29:09.569Z,101534.28
2022-12-05T16:31:36.933Z,101531.13
2022-12-05T16:34:07.616Z,101526.00
2022-12-05T16:36:35.244Z,101529.44
2022-12-05T16:39:07.211Z,101526.41
2022-12-05T16:41:36.322Z,101532.72
2022-12-05T16:44:10.761Z,101538.72
2022-12-05T16:46:40.339Z,101540.63
2022-12-05T16:49:33.043Z,101535.38
2022-12-05T16:52:09.675Z,101539.50
2022-12-05T16:54:37.063Z,101537.94
2022-12-05T16:57:04.630Z,101545.44
2022-12-05T16:59:37.248Z,101542.72
2022-12-05T17:02:10.216Z,101547.19
2022-12-05T17:04:38.709Z,101555.88
2022-12-05T17:07:06.002Z,101551.31
2022-12-05T17:09:33.363Z,101550.91
2022-12-05T17:12:24.043Z,101551.28
2022-12-05T17:14:51.300Z,101556.94
2022-12-05T17:17:19.051Z,101557.25
2022-12-05T17:19:46.437Z,101555.09
2022-12-05T17:22:15.480Z,101561.50
2022-12-05T17:24:43.106Z,101559.59
2022-12-05T17:27:11.954Z,101555.19
2022-12-05T17:29:39.266Z,101564.56
2022-12-05T17:32:06.557Z,101571.41
2022-12-05T17:34:34.874Z,101575.56
2022-12-05T17:37:03.056Z,101568.97
2022-12-05T17:39:31.386Z,101574.53
2022-12-05T17:41:59.025Z,101573.13
2022-12-05T17:44:26.483Z,101580.97
2022-12-05T17:46:55.069Z,101583.03
2022-12-05T17:49:22.942Z,101581.56
2022-12-05T17:52:20.405Z,101579.03
2022-12-05T17:54:41.009Z,101590.91
2022-12-05T17:57:08.417Z,101585.19
2022-12-05T17:59:35.656Z,101593.00
2022-12-05T18:02:02.946Z,101588.53
2022-12-05T18:04:30.207Z,101599.00
2022-12-05T18:06:57.506Z,101600.25
2022-12-05T18:09:24.716Z,101594.25
2022-12-05T18:11:51.967Z,101609.53
2022-12-05T18:14:19.208Z,101601.56
2022-12-05T18:16:46.745Z,101611.84
2022-12-05T18:19:15.125Z,101608.91
2022-12-05T18:21:42.494Z,101606.19
2022-12-05T18:24:10.413Z,101606.69
2022-12-05T18:26:37.661Z,101610.00
2022-12-05T18:29:04.950Z,101609.81
2022-12-05T18:31:32.505Z,101606.56
2022-12-05T18:33:59.863Z,101603.44
2022-12-05T18:36:27.282Z,101599.59
2022-12-05T18:38:56.084Z,101608.66
2022-12-05T18:41:24.149Z,101610.00
2022-12-05T18:43:51.564Z,101612.94
2022-12-05T18:46:19.521Z,101619.72
2022-12-05T18:48:47.960Z,101625.25
2022-12-05T18:51:18.937Z,101621.94
2022-12-05T18:53:52.526Z,101618.09
2022-12-05T18:56:31.514Z,101618.03
2022-12-05T18:59:04.790Z,101619.63
2022-12-05T19:01:34.399Z,101621.88
2022-12-05T19:04:03.982Z,101625.66
2022-12-05T19:06:32.931Z,101626.19
2022-12-05T19:09:02.585Z,101627.81
2022-12-05T19:11:29.930Z,101628.72
2022-12-05T19:13:58.635Z,101627.06
2022-12-05T19:16:28.117Z,101618.84
2022-12-05T19:18:57.025Z,101624.66
2022-12-05T19:21:25.112Z,101621.16
2022-12-05T19:23:52.771Z,101629.63
2022-12-05T19:26:20.278Z,101627.38
2022-12-05T19:28:47.689Z,101622.44
2022-12-05T19:31:18.203Z,101622.63
2022-12-05T19:33:47.910Z,101629.81
2022-12-05T19:36:22.940Z,101626.38
2022-12-05T19:38:51.483Z,101627.19
2022-12-05T19:41:21.998Z,101628.16
2022-12-05T19:43:49.394Z,101626.50
2022-12-05T19:46:20.673Z,101632.16
2022-12-05T19:48:48.304Z,101629.47
2022-12-05T19:51:15.764Z,101631.16
2022-12-05T19:53:44.058Z,101622.78
2022-12-05T19:56:24.950Z,101622.72
2022-12-05T19:58:53.961Z,101627.31
2022-12-05T20:01:27.839Z,101626.59
2022-12-05T20:04:06.727Z,101622.31
2022-12-05T20:06:43.163Z,101619.72
2022-12-05T20:09:21.453Z,101622.44
2022-12-05T20:11:55.044Z,101627.28
2022-12-05T20:14:25.297Z,101626.97
2022-12-05T20:16:53.310Z,101632.13
2022-12-05T20:19:20.676Z,101628.66
2022-12-05T20:21:48.190Z,101626.75
2022-12-05T20:24:15.465Z,101636.03
2022-12-05T20:26:44.109Z,101626.88
2022-12-05T20:29:11.353Z,101635.94
2022-12-05T20:31:41.050Z,101633.16
2022-12-05T20:34:14.778Z,101636.00
2022-12-05T20:36:42.552Z,101635.00
2022-12-05T20:39:14.703Z,101639.19
2022-12-05T20:41:42.303Z,101641.78
2022-12-05T20:44:13.487Z,101642.25
2022-12-05T20:46:41.655Z,101640.31
2022-12-05T20:49:09.250Z,101644.84
2022-12-05T20:51:36.564Z,101643.97
2022-12-05T20:54:05.374Z,101644.13
2022-12-05T20:56:34.265Z,101646.19
2022-12-05T20:59:03.987Z,101652.81
2022-12-05T21:01:33.241Z,101643.63
2022-12-05T21:04:01.428Z,101648.81
2022-12-05T21:06:33.837Z,101641.78
2022-12-05T21:09:01.974Z,101645.47
2022-12-05T21:11:30.322Z,101644.78
2022-12-05T21:14:00.255Z,101635.31
2022-12-05T21:16:27.744Z,101643.03
2022-12-05T21:18:56.156Z,101648.81
2022-12-05T21:21:25.931Z,101644.13
2022-12-05T21:23:58.242Z,101645.47
2022-12-05T21:26:27.096Z,101645.34
2022-12-05T21:28:54.871Z,101642.31
2022-12-05T21:31:26.279Z,101643.16
2022-12-05T21:33:56.890Z,101637.09
2022-12-05T21:36:25.167Z,101636.38
2022-12-05T21:38:56.203Z,101628.41
2022-12-05T21:41:26.895Z,101639.44
2022-12-05T21:43:55.686Z,101643.41
2022-12-05T21:46:26.891Z,101642.56
2022-12-05T21:48:54.872Z,101636.84
2022-12-05T21:51:22.951Z,101631.66
2022-12-05T21:53:50.562Z,101635.88
2022-12-05T21:56:22.641Z,101633.81
2022-12-05T21:58:50.409Z,101628.50
2022-12-05T22:01:19.944Z,101631.53
2022-12-05T22:03:47.587Z,101634.53
2022-12-05T22:06:15.421Z,101631.03
2022-12-05T22:08:43.306Z,101628.81
2022-12-05T22:11:18.656Z,101630.75
2022-12-05T22:13:47.046Z,101630.03
2022-12-05T22:16:15.203Z,101629.44
2022-12-05T22:18:43.374Z,101635.94
2022-12-05T22:21:13.472Z,101632.28
2022-12-05T22:23:40.774Z,101633.72
2022-12-05T22:26:17.676Z,101623.88
2022-12-05T22:28:45.497Z,101626.03
2022-12-05T22:31:15.172Z,101623.22
2022-12-05T22:33:48.185Z,101627.84
2022-12-05T22:36:17.339Z,101625.94
2022-12-05T22:38:47.279Z,101630.03
2022-12-05T22:41:15.676Z,101626.66
2022-12-05T22:43:44.709Z,101635.00
2022-12-05T22:46:20.586Z,101636.75
2022-12-05T22:48:49.089Z,101631.41
2022-12-05T22:51:17.880Z,101628.09
2022-12-05T22:53:45.496Z,101626.41
2022-12-05T22:56:15.611Z,101626.34
2022-12-05T22:58:43.093Z,101621.81
2022-12-05T23:01:13.500Z,101625.78
2022-12-05T23:03:41.606Z,101619.44
2022-12-05T23:06:11.908Z,101620.69
2022-12-05T23:08:40.721Z,101617.13
2022-12-05T23:11:09.101Z,101621.88
2022-12-05T23:13:37.651Z,101619.31
2022-12-05T23:16:26.472Z,101615.38
2022-12-05T23:18:56.110Z,101621.47
2022-12-05T23:21:38.086Z,101615.38
2022-12-05T23:24:08.375Z,101619.75
2022-12-05T23:26:38.862Z,101613.22
2022-12-05T23:29:08.171Z,101605.88
2022-12-05T23:31:35.597Z,101611.78
2022-12-05T23:34:04.243Z,101608.38
2022-12-05T23:36:33.369Z,101607.31
2022-12-05T23:39:01.302Z,101608.88
2022-12-05T23:41:29.706Z,101607.81
2022-12-05T23:43:59.690Z,101605.84
2022-12-05T23:46:27.202Z,101603.53
2022-12-05T23:48:55.950Z,101612.78
2022-12-05T23:51:29.634Z,101606.91
2022-12-05T23:54:01.377Z,101606.09
2022-12-05T23:56:31.407Z,101603.03
2022-12-05T23:58:59.883Z,101611.78
